Clinton, Illinois
Current Conditions -  °F | °C
As of 10:55 PM on Monday 22 Dec 2014 (Local Time) from KAAA Reporting Station
Moderate Rain Moderate Rain  
Wind Chill: 44°   Ceiling: 600
Heat Index: 48°   Visibility: 5mi
Dew Point: 47°   Wind: 10mph
Humidity: 96%   Direction: 170°S
Pressure: 29.52"   Gusts: NA
Location:  40.15°N, 88.96°W
Report Text: KAAA 230455Z AUTO 17009KT 5SM RA OVC006 09/08 A2952 RMK AO2 P0005 T00900084
Loading
Personal Weather Stations






























Interactive Weather Map New forecast layout! Learn more

10-Day Weather Forecast

Advertisements
Track Severe Weather on mobile